Pistol River, Oregon
Current Conditions -  °F | °C
As of 2:56 PM on Tuesday 27 Jan 2015 (Local Time) from KBOK Reporting Station
Few Clouds Few Clouds  
Wind Chill: 13°   Ceiling: Unl
Heat Index: 13°   Visibility: 10mi
Dew Point: 11°   Wind: 6mph
Humidity: 90%   Direction: 170°S
Pressure: 30.19"   Gusts: NA
Location:  42.5771°N, 124.359°W
Report Text: KBOK 272256Z AUTO 17005KT 10SM FEW080 13/11 A3019 RMK AO2 T01270111 SLP226
Loading
Personal Weather Stations






























Interactive Weather Map New forecast layout! Learn more

10-Day Weather Forecast

Advertisements
Track Severe Weather on mobile